sensor_id;sensor_type;location;lat;lon;timestamp;pressure;altitude;pressure_sealevel;temperature
4421;BMP180;11824;51.178;13.546;2023-09-12T00:01:38;99953.00;;;17.30
4421;BMP180;11824;51.178;13.546;2023-09-12T00:04:09;99955.00;;;17.30
4421;BMP180;11824;51.178;13.546;2023-09-12T00:06:39;99949.00;;;17.30
4421;BMP180;11824;51.178;13.546;2023-09-12T00:09:08;99945.00;;;17.30
4421;BMP180;11824;51.178;13.546;2023-09-12T00:11:37;99949.00;;;17.20
4421;BMP180;11824;51.178;13.546;2023-09-12T00:14:08;99948.00;;;17.20
4421;BMP180;11824;51.178;13.546;2023-09-12T00:16:37;99946.00;;;17.20
4421;BMP180;11824;51.178;13.546;2023-09-12T00:19:07;99949.00;;;17.10
4421;BMP180;11824;51.178;13.546;2023-09-12T00:21:36;99954.00;;;17.10
4421;BMP180;11824;51.178;13.546;2023-09-12T00:24:05;99953.00;;;17.10
4421;BMP180;11824;51.178;13.546;2023-09-12T00:26:34;99955.00;;;17.10
4421;BMP180;11824;51.178;13.546;2023-09-12T00:29:03;99943.00;;;17.10
4421;BMP180;11824;51.178;13.546;2023-09-12T00:31:32;99942.00;;;17.00
4421;BMP180;11824;51.178;13.546;2023-09-12T00:34:01;99941.00;;;17.00
4421;BMP180;11824;51.178;13.546;2023-09-12T00:36:31;99940.00;;;17.00
4421;BMP180;11824;51.178;13.546;2023-09-12T00:39:00;99944.00;;;17.00
4421;BMP180;11824;51.178;13.546;2023-09-12T00:41:29;99947.00;;;17.00
4421;BMP180;11824;51.178;13.546;2023-09-12T00:43:58;99943.00;;;16.90
4421;BMP180;11824;51.178;13.546;2023-09-12T00:46:28;99940.00;;;16.90
4421;BMP180;11824;51.178;13.546;2023-09-12T00:48:58;99941.00;;;16.90
4421;BMP180;11824;51.178;13.546;2023-09-12T00:51:28;99947.00;;;16.90
4421;BMP180;11824;51.178;13.546;2023-09-12T00:53:59;99940.00;;;16.80
4421;BMP180;11824;51.178;13.546;2023-09-12T00:56:28;99948.00;;;16.80
4421;BMP180;11824;51.178;13.546;2023-09-12T00:58:58;99936.00;;;16.80
4421;BMP180;11824;51.178;13.546;2023-09-12T01:01:27;99943.00;;;16.80
4421;BMP180;11824;51.178;13.546;2023-09-12T01:03:59;99945.00;;;16.80
4421;BMP180;11824;51.178;13.546;2023-09-12T01:06:31;99946.00;;;16.80
4421;BMP180;11824;51.178;13.546;2023-09-12T01:09:02;99942.00;;;16.70
4421;BMP180;11824;51.178;13.546;2023-09-12T01:11:32;99944.00;;;16.70
4421;BMP180;11824;51.178;13.546;2023-09-12T01:14:01;99947.00;;;16.70
4421;BMP180;11824;51.178;13.546;2023-09-12T01:16:29;99942.00;;;16.70
4421;BMP180;11824;51.178;13.546;2023-09-12T01:18:59;99945.00;;;16.70
4421;BMP180;11824;51.178;13.546;2023-09-12T01:24:56;99949.00;;;16.60
4421;BMP180;11824;51.178;13.546;2023-09-12T01:27:35;99943.00;;;16.60
4421;BMP180;11824;51.178;13.546;2023-09-12T01:30:07;99945.00;;;16.60
4421;BMP180;11824;51.178;13.546;2023-09-12T01:32:37;99940.00;;;16.60
4421;BMP180;11824;51.178;13.546;2023-09-12T01:35:08;99943.00;;;16.60
4421;BMP180;11824;51.178;13.546;2023-09-12T01:37:37;99942.00;;;16.50
4421;BMP180;11824;51.178;13.546;2023-09-12T01:40:08;99939.00;;;16.50
4421;BMP180;11824;51.178;13.546;2023-09-12T01:42:44;99937.00;;;16.50
4421;BMP180;11824;51.178;13.546;2023-09-12T01:45:16;99945.00;;;16.40
4421;BMP180;11824;51.178;13.546;2023-09-12T01:47:50;99943.00;;;16.40
4421;BMP180;11824;51.178;13.546;2023-09-12T01:50:20;99942.00;;;16.40
4421;BMP180;11824;51.178;13.546;2023-09-12T01:52:50;99948.00;;;16.30
4421;BMP180;11824;51.178;13.546;2023-09-12T01:55:20;99943.00;;;16.30
4421;BMP180;11824;51.178;13.546;2023-09-12T01:57:51;99946.00;;;16.30
4421;BMP180;11824;51.178;13.546;2023-09-12T02:00:21;99945.00;;;16.30
4421;BMP180;11824;51.178;13.546;2023-09-12T02:02:50;99942.00;;;16.20
4421;BMP180;11824;51.178;13.546;2023-09-12T02:05:21;99952.00;;;16.20
4421;BMP180;11824;51.178;13.546;2023-09-12T02:07:51;99953.00;;;16.20
4421;BMP180;11824;51.178;13.546;2023-09-12T02:10:20;99951.00;;;16.20
4421;BMP180;11824;51.178;13.546;2023-09-12T02:12:51;99955.00;;;16.20
4421;BMP180;11824;51.178;13.546;2023-09-12T02:15:21;99953.00;;;16.10
4421;BMP180;11824;51.178;13.546;2023-09-12T02:17:51;99945.00;;;16.10
4421;BMP180;11824;51.178;13.546;2023-09-12T02:20:20;99946.00;;;16.10
4421;BMP180;11824;51.178;13.546;2023-09-12T02:22:50;99944.00;;;16.10
4421;BMP180;11824;51.178;13.546;2023-09-12T02:25:19;99945.00;;;16.00
4421;BMP180;11824;51.178;13.546;2023-09-12T02:27:50;99948.00;;;16.00
4421;BMP180;11824;51.178;13.546;2023-09-12T02:30:19;99950.00;;;16.00
4421;BMP180;11824;51.178;13.546;2023-09-12T02:32:48;99943.00;;;16.00
4421;BMP180;11824;51.178;13.546;2023-09-12T02:35:18;99941.00;;;16.00
4421;BMP180;11824;51.178;13.546;2023-09-12T02:37:47;99948.00;;;15.90
4421;BMP180;11824;51.178;13.546;2023-09-12T02:40:17;99952.00;;;15.90
4421;BMP180;11824;51.178;13.546;2023-09-12T02:42:46;99948.00;;;15.90
4421;BMP180;11824;51.178;13.546;2023-09-12T02:45:18;99948.00;;;15.80
4421;BMP180;11824;51.178;13.546;2023-09-12T02:47:48;99947.00;;;15.80
4421;BMP180;11824;51.178;13.546;2023-09-12T02:50:20;99945.00;;;15.80
4421;BMP180;11824;51.178;13.546;2023-09-12T02:52:49;99948.00;;;15.80
4421;BMP180;11824;51.178;13.546;2023-09-12T02:55:19;99947.00;;;15.70
4421;BMP180;11824;51.178;13.546;2023-09-12T02:57:48;99953.00;;;15.70
4421;BMP180;11824;51.178;13.546;2023-09-12T03:00:19;99946.00;;;15.70
4421;BMP180;11824;51.178;13.546;2023-09-12T03:02:49;99944.00;;;15.60
4421;BMP180;11824;51.178;13.546;2023-09-12T03:05:19;99951.00;;;15.60
4421;BMP180;11824;51.178;13.546;2023-09-12T03:07:48;99936.00;;;15.60
4421;BMP180;11824;51.178;13.546;2023-09-12T03:10:17;99946.00;;;15.60
4421;BMP180;11824;51.178;13.546;2023-09-12T03:12:48;99939.00;;;15.60
4421;BMP180;11824;51.178;13.546;2023-09-12T03:15:19;99945.00;;;15.60
4421;BMP180;11824;51.178;13.546;2023-09-12T03:17:49;99941.00;;;15.50
4421;BMP180;11824;51.178;13.546;2023-09-12T03:20:19;99943.00;;;15.50
4421;BMP180;11824;51.178;13.546;2023-09-12T03:22:48;99935.00;;;15.50
4421;BMP180;11824;51.178;13.546;2023-09-12T03:25:18;99928.00;;;15.50
4421;BMP180;11824;51.178;13.546;2023-09-12T03:27:48;99934.00;;;15.50
4421;BMP180;11824;51.178;13.546;2023-09-12T03:30:21;99932.00;;;15.50
4421;BMP180;11824;51.178;13.546;2023-09-12T03:32:50;99926.00;;;15.40
4421;BMP180;11824;51.178;13.546;2023-09-12T03:35:20;99926.00;;;15.40
4421;BMP180;11824;51.178;13.546;2023-09-12T03:37:52;99933.00;;;15.40
4421;BMP180;11824;51.178;13.546;2023-09-12T03:40:21;99926.00;;;15.40
4421;BMP180;11824;51.178;13.546;2023-09-12T03:42:51;99927.00;;;15.30
4421;BMP180;11824;51.178;13.546;2023-09-12T03:45:26;99926.00;;;15.30
4421;BMP180;11824;51.178;13.546;2023-09-12T03:47:56;99925.00;;;15.30
4421;BMP180;11824;51.178;13.546;2023-09-12T03:50:26;99933.00;;;15.30
4421;BMP180;11824;51.178;13.546;2023-09-12T03:52:56;99929.00;;;15.30
4421;BMP180;11824;51.178;13.546;2023-09-12T03:55:25;99928.00;;;15.30
4421;BMP180;11824;51.178;13.546;2023-09-12T03:57:55;99927.00;;;15.30
4421;BMP180;11824;51.178;13.546;2023-09-12T04:00:27;99937.00;;;15.30
4421;BMP180;11824;51.178;13.546;2023-09-12T04:02:56;99933.00;;;15.30
4421;BMP180;11824;51.178;13.546;2023-09-12T04:05:26;99942.00;;;15.20
4421;BMP180;11824;51.178;13.546;2023-09-12T04:07:55;99944.00;;;15.20
4421;BMP180;11824;51.178;13.546;2023-09-12T04:10:24;99935.00;;;15.20
4421;BMP180;11824;51.178;13.546;2023-09-12T04:12:53;99941.00;;;15.20
4421;BMP180;11824;51.178;13.546;2023-09-12T04:15:22;99936.00;;;15.10
4421;BMP180;11824;51.178;13.546;2023-09-12T04:17:53;99935.00;;;15.10
4421;BMP180;11824;51.178;13.546;2023-09-12T04:20:22;99936.00;;;15.10
4421;BMP180;11824;51.178;13.546;2023-09-12T04:22:52;99931.00;;;15.10
4421;BMP180;11824;51.178;13.546;2023-09-12T04:25:21;99933.00;;;15.10
4421;BMP180;11824;51.178;13.546;2023-09-12T04:27:51;99932.00;;;15.10
4421;BMP180;11824;51.178;13.546;2023-09-12T04:30:20;99936.00;;;15.10
4421;BMP180;11824;51.178;13.546;2023-09-12T04:32:49;99932.00;;;15.10
4421;BMP180;11824;51.178;13.546;2023-09-12T04:35:23;99928.00;;;15.10
4421;BMP180;11824;51.178;13.546;2023-09-12T04:37:53;99931.00;;;15.10
4421;BMP180;11824;51.178;13.546;2023-09-12T04:40:22;99930.00;;;15.10
4421;BMP180;11824;51.178;13.546;2023-09-12T04:42:51;99930.00;;;15.10
4421;BMP180;11824;51.178;13.546;2023-09-12T04:45:24;99930.00;;;15.10
4421;BMP180;11824;51.178;13.546;2023-09-12T04:47:56;99936.00;;;15.10
4421;BMP180;11824;51.178;13.546;2023-09-12T04:50:27;99933.00;;;15.20
4421;BMP180;11824;51.178;13.546;2023-09-12T04:52:57;99929.00;;;15.20
4421;BMP180;11824;51.178;13.546;2023-09-12T04:55:26;99926.00;;;15.20
4421;BMP180;11824;51.178;13.546;2023-09-12T04:57:56;99932.00;;;15.20
4421;BMP180;11824;51.178;13.546;2023-09-12T05:00:26;99936.00;;;15.30
4421;BMP180;11824;51.178;13.546;2023-09-12T05:02:56;99932.00;;;15.30
4421;BMP180;11824;51.178;13.546;2023-09-12T05:05:27;99922.00;;;15.30
4421;BMP180;11824;51.178;13.546;2023-09-12T05:07:56;99922.00;;;15.40
4421;BMP180;11824;51.178;13.546;2023-09-12T05:10:25;99922.00;;;15.40
4421;BMP180;11824;51.178;13.546;2023-09-12T05:12:55;99924.00;;;15.50
4421;BMP180;11824;51.178;13.546;2023-09-12T05:15:24;99928.00;;;15.50
4421;BMP180;11824;51.178;13.546;2023-09-12T05:17:54;99938.00;;;15.60
4421;BMP180;11824;51.178;13.546;2023-09-12T05:20:23;99941.00;;;15.60
4421;BMP180;11824;51.178;13.546;2023-09-12T05:22:54;99933.00;;;15.70
4421;BMP180;11824;51.178;13.546;2023-09-12T05:25:23;99932.00;;;15.90
4421;BMP180;11824;51.178;13.546;2023-09-12T05:27:55;99934.00;;;16.00
4421;BMP180;11824;51.178;13.546;2023-09-12T05:30:24;99942.00;;;16.10
4421;BMP180;11824;51.178;13.546;2023-09-12T05:32:54;99937.00;;;16.40
4421;BMP180;11824;51.178;13.546;2023-09-12T05:35:24;99947.00;;;16.70
4421;BMP180;11824;51.178;13.546;2023-09-12T05:37:54;99945.00;;;17.00
4421;BMP180;11824;51.178;13.546;2023-09-12T05:40:23;99944.00;;;17.30
4421;BMP180;11824;51.178;13.546;2023-09-12T05:42:52;99953.00;;;17.60
4421;BMP180;11824;51.178;13.546;2023-09-12T05:45:21;99946.00;;;17.80
4421;BMP180;11824;51.178;13.546;2023-09-12T05:47:51;99962.00;;;18.00
4421;BMP180;11824;51.178;13.546;2023-09-12T05:50:20;99952.00;;;18.30
4421;BMP180;11824;51.178;13.546;2023-09-12T05:52:49;99952.00;;;18.70
4421;BMP180;11824;51.178;13.546;2023-09-12T05:55:19;99955.00;;;19.00
4421;BMP180;11824;51.178;13.546;2023-09-12T05:57:49;99963.00;;;19.30
4421;BMP180;11824;51.178;13.546;2023-09-12T06:00:20;99960.00;;;19.60
4421;BMP180;11824;51.178;13.546;2023-09-12T06:02:49;99973.00;;;19.90
4421;BMP180;11824;51.178;13.546;2023-09-12T06:05:18;99975.00;;;20.20
4421;BMP180;11824;51.178;13.546;2023-09-12T06:07:47;99983.00;;;20.50
4421;BMP180;11824;51.178;13.546;2023-09-12T06:10:16;99980.00;;;20.80
4421;BMP180;11824;51.178;13.546;2023-09-12T06:12:46;99976.00;;;21.00
4421;BMP180;11824;51.178;13.546;2023-09-12T06:15:15;99984.00;;;21.10
4421;BMP180;11824;51.178;13.546;2023-09-12T06:17:44;100003.00;;;21.20
4421;BMP180;11824;51.178;13.546;2023-09-12T06:20:13;99997.00;;;21.30
4421;BMP180;11824;51.178;13.546;2023-09-12T06:22:42;99991.00;;;21.30
4421;BMP180;11824;51.178;13.546;2023-09-12T06:25:11;99994.00;;;21.20
4421;BMP180;11824;51.178;13.546;2023-09-12T06:27:40;99990.00;;;21.10
4421;BMP180;11824;51.178;13.546;2023-09-12T06:30:12;99991.00;;;21.00
4421;BMP180;11824;51.178;13.546;2023-09-12T06:32:41;99990.00;;;20.80
4421;BMP180;11824;51.178;13.546;2023-09-12T06:35:09;99990.00;;;20.70
4421;BMP180;11824;51.178;13.546;2023-09-12T06:37:38;99996.00;;;20.60
4421;BMP180;11824;51.178;13.546;2023-09-12T06:40:08;99997.00;;;20.50
4421;BMP180;11824;51.178;13.546;2023-09-12T06:42:37;99998.00;;;20.40
4421;BMP180;11824;51.178;13.546;2023-09-12T06:45:07;99999.00;;;20.40
4421;BMP180;11824;51.178;13.546;2023-09-12T06:47:37;99998.00;;;20.30
4421;BMP180;11824;51.178;13.546;2023-09-12T06:50:07;100003.00;;;20.30
4421;BMP180;11824;51.178;13.546;2023-09-12T06:52:42;99992.00;;;20.30
4421;BMP180;11824;51.178;13.546;2023-09-12T06:55:10;100003.00;;;20.30
4421;BMP180;11824;51.178;13.546;2023-09-12T06:57:39;99998.00;;;20.30
4421;BMP180;11824;51.178;13.546;2023-09-12T07:00:09;99998.00;;;20.30
4421;BMP180;11824;51.178;13.546;2023-09-12T07:02:40;99995.00;;;20.30
4421;BMP180;11824;51.178;13.546;2023-09-12T07:05:09;99993.00;;;20.30
4421;BMP180;11824;51.178;13.546;2023-09-12T07:07:38;99993.00;;;20.40
4421;BMP180;11824;51.178;13.546;2023-09-12T07:10:07;99997.00;;;20.50
4421;BMP180;11824;51.178;13.546;2023-09-12T07:12:52;99997.00;;;20.50
4421;BMP180;11824;51.178;13.546;2023-09-12T07:15:21;100002.00;;;20.60
4421;BMP180;11824;51.178;13.546;2023-09-12T07:17:51;99999.00;;;20.70
4421;BMP180;11824;51.178;13.546;2023-09-12T07:20:20;99990.00;;;20.80
4421;BMP180;11824;51.178;13.546;2023-09-12T07:22:52;99999.00;;;20.90
4421;BMP180;11824;51.178;13.546;2023-09-12T07:25:20;99991.00;;;21.00
4421;BMP180;11824;51.178;13.546;2023-09-12T07:27:51;100001.00;;;21.00
4421;BMP180;11824;51.178;13.546;2023-09-12T07:30:20;99995.00;;;21.10
4421;BMP180;11824;51.178;13.546;2023-09-12T07:32:50;100005.00;;;21.20
4421;BMP180;11824;51.178;13.546;2023-09-12T07:35:19;100003.00;;;21.30
4421;BMP180;11824;51.178;13.546;2023-09-12T07:37:51;99998.00;;;21.40
4421;BMP180;11824;51.178;13.546;2023-09-12T07:40:20;99995.00;;;21.50
4421;BMP180;11824;51.178;13.546;2023-09-12T07:42:49;99994.00;;;21.60
4421;BMP180;11824;51.178;13.546;2023-09-12T07:45:21;99994.00;;;21.60
4421;BMP180;11824;51.178;13.546;2023-09-12T07:47:51;99999.00;;;21.70
4421;BMP180;11824;51.178;13.546;2023-09-12T07:50:20;100008.00;;;21.80
4421;BMP180;11824;51.178;13.546;2023-09-12T07:52:48;100003.00;;;21.90
4421;BMP180;11824;51.178;13.546;2023-09-12T07:55:18;100012.00;;;22.00
4421;BMP180;11824;51.178;13.546;2023-09-12T07:57:47;100016.00;;;22.10
4421;BMP180;11824;51.178;13.546;2023-09-12T08:00:16;100022.00;;;22.20
4421;BMP180;11824;51.178;13.546;2023-09-12T08:02:45;100023.00;;;22.30
4421;BMP180;11824;51.178;13.546;2023-09-12T08:05:15;100012.00;;;22.40
4421;BMP180;11824;51.178;13.546;2023-09-12T08:07:44;100007.00;;;22.50
4421;BMP180;11824;51.178;13.546;2023-09-12T08:10:13;100014.00;;;22.50
4421;BMP180;11824;51.178;13.546;2023-09-12T08:12:42;100002.00;;;22.60
4421;BMP180;11824;51.178;13.546;2023-09-12T08:15:10;99999.00;;;22.70
4421;BMP180;11824;51.178;13.546;2023-09-12T08:17:39;100005.00;;;22.80
4421;BMP180;11824;51.178;13.546;2023-09-12T08:20:09;100002.00;;;22.90
4421;BMP180;11824;51.178;13.546;2023-09-12T08:22:39;100000.00;;;23.00
4421;BMP180;11824;51.178;13.546;2023-09-12T08:25:08;99997.00;;;23.10
4421;BMP180;11824;51.178;13.546;2023-09-12T08:27:40;100007.00;;;23.20
4421;BMP180;11824;51.178;13.546;2023-09-12T08:30:11;100007.00;;;23.30
4421;BMP180;11824;51.178;13.546;2023-09-12T08:32:43;100001.00;;;23.40
4421;BMP180;11824;51.178;13.546;2023-09-12T08:35:15;100002.00;;;23.50
4421;BMP180;11824;51.178;13.546;2023-09-12T08:37:49;99999.00;;;23.60
4421;BMP180;11824;51.178;13.546;2023-09-12T08:40:18;100003.00;;;23.70
4421;BMP180;11824;51.178;13.546;2023-09-12T08:42:48;100003.00;;;23.80
4421;BMP180;11824;51.178;13.546;2023-09-12T08:45:19;100008.00;;;23.90
4421;BMP180;11824;51.178;13.546;2023-09-12T08:47:51;100005.00;;;24.00
4421;BMP180;11824;51.178;13.546;2023-09-12T08:50:21;100004.00;;;24.10
4421;BMP180;11824;51.178;13.546;2023-09-12T08:52:53;100002.00;;;24.20
4421;BMP180;11824;51.178;13.546;2023-09-12T08:55:35;99998.00;;;24.30
4421;BMP180;11824;51.178;13.546;2023-09-12T08:58:05;99999.00;;;24.40
4421;BMP180;11824;51.178;13.546;2023-09-12T09:00:35;99996.00;;;24.50
4421;BMP180;11824;51.178;13.546;2023-09-12T09:03:05;100001.00;;;24.60
4421;BMP180;11824;51.178;13.546;2023-09-12T09:05:35;100000.00;;;24.70
4421;BMP180;11824;51.178;13.546;2023-09-12T09:08:07;100000.00;;;24.80
4421;BMP180;11824;51.178;13.546;2023-09-12T09:10:36;99998.00;;;24.90
4421;BMP180;11824;51.178;13.546;2023-09-12T09:13:17;100008.00;;;25.00
4421;BMP180;11824;51.178;13.546;2023-09-12T09:15:46;99996.00;;;25.00
4421;BMP180;11824;51.178;13.546;2023-09-12T09:18:15;99991.00;;;25.10
4421;BMP180;11824;51.178;13.546;2023-09-12T09:20:45;99990.00;;;25.20
4421;BMP180;11824;51.178;13.546;2023-09-12T09:23:18;99991.00;;;25.30
4421;BMP180;11824;51.178;13.546;2023-09-12T09:25:53;99989.00;;;25.40
4421;BMP180;11824;51.178;13.546;2023-09-12T09:28:22;99988.00;;;25.50
4421;BMP180;11824;51.178;13.546;2023-09-12T09:30:52;99988.00;;;25.60
4421;BMP180;11824;51.178;13.546;2023-09-12T09:33:23;99988.00;;;25.70
4421;BMP180;11824;51.178;13.546;2023-09-12T09:36:02;99983.00;;;25.80
4421;BMP180;11824;51.178;13.546;2023-09-12T09:38:35;99982.00;;;25.90
4421;BMP180;11824;51.178;13.546;2023-09-12T09:41:05;99986.00;;;26.00
4421;BMP180;11824;51.178;13.546;2023-09-12T09:43:34;99981.00;;;26.10
4421;BMP180;11824;51.178;13.546;2023-09-12T09:46:03;99979.00;;;26.20
4421;BMP180;11824;51.178;13.546;2023-09-12T09:48:32;99980.00;;;26.30
4421;BMP180;11824;51.178;13.546;2023-09-12T09:51:03;99972.00;;;26.40
4421;BMP180;11824;51.178;13.546;2023-09-12T09:53:32;99978.00;;;26.50
4421;BMP180;11824;51.178;13.546;2023-09-12T09:56:11;99982.00;;;26.60
4421;BMP180;11824;51.178;13.546;2023-09-12T09:58:47;99980.00;;;26.70
4421;BMP180;11824;51.178;13.546;2023-09-12T10:01:18;99979.00;;;26.70
4421;BMP180;11824;51.178;13.546;2023-09-12T10:03:49;99987.00;;;26.80
4421;BMP180;11824;51.178;13.546;2023-09-12T10:06:19;99985.00;;;26.90
4421;BMP180;11824;51.178;13.546;2023-09-12T10:08:51;99988.00;;;26.90
4421;BMP180;11824;51.178;13.546;2023-09-12T10:11:24;99994.00;;;27.00
4421;BMP180;11824;51.178;13.546;2023-09-12T10:13:54;99993.00;;;27.10
4421;BMP180;11824;51.178;13.546;2023-09-12T10:16:25;99990.00;;;27.20
4421;BMP180;11824;51.178;13.546;2023-09-12T10:19:04;99985.00;;;27.30
4421;BMP180;11824;51.178;13.546;2023-09-12T10:21:41;99988.00;;;27.40
4421;BMP180;11824;51.178;13.546;2023-09-12T10:24:15;99989.00;;;27.40
4421;BMP180;11824;51.178;13.546;2023-09-12T10:26:45;99989.00;;;27.50
4421;BMP180;11824;51.178;13.546;2023-09-12T10:29:18;99986.00;;;27.60
4421;BMP180;11824;51.178;13.546;2023-09-12T10:31:47;99990.00;;;27.70
4421;BMP180;11824;51.178;13.546;2023-09-12T10:34:17;99991.00;;;27.80
4421;BMP180;11824;51.178;13.546;2023-09-12T10:36:47;99977.00;;;27.90
4421;BMP180;11824;51.178;13.546;2023-09-12T10:39:16;99986.00;;;28.00
4421;BMP180;11824;51.178;13.546;2023-09-12T10:41:50;99994.00;;;28.10
4421;BMP180;11824;51.178;13.546;2023-09-12T10:44:21;99994.00;;;28.10
4421;BMP180;11824;51.178;13.546;2023-09-12T10:46:50;99987.00;;;28.20
4421;BMP180;11824;51.178;13.546;2023-09-12T10:49:20;99992.00;;;28.30
4421;BMP180;11824;51.178;13.546;2023-09-12T10:51:54;99976.00;;;28.40
4421;BMP180;11824;51.178;13.546;2023-09-12T10:54:25;99980.00;;;28.50
4421;BMP180;11824;51.178;13.546;2023-09-12T10:57:04;99980.00;;;28.60
4421;BMP180;11824;51.178;13.546;2023-09-12T10:59:34;99982.00;;;28.60
4421;BMP180;11824;51.178;13.546;2023-09-12T11:02:29;99983.00;;;28.80
4421;BMP180;11824;51.178;13.546;2023-09-12T11:04:58;99977.00;;;28.80
4421;BMP180;11824;51.178;13.546;2023-09-12T11:07:32;99981.00;;;28.90
4421;BMP180;11824;51.178;13.546;2023-09-12T11:10:20;99975.00;;;29.00
4421;BMP180;11824;51.178;13.546;2023-09-12T11:12:52;99969.00;;;29.00
4421;BMP180;11824;51.178;13.546;2023-09-12T11:15:23;99967.00;;;29.00
4421;BMP180;11824;51.178;13.546;2023-09-12T11:18:01;99963.00;;;29.10
4421;BMP180;11824;51.178;13.546;2023-09-12T11:20:52;99969.00;;;29.20
4421;BMP180;11824;51.178;13.546;2023-09-12T11:23:21;99966.00;;;29.20
4421;BMP180;11824;51.178;13.546;2023-09-12T11:26:03;99956.00;;;29.30
4421;BMP180;11824;51.178;13.546;2023-09-12T11:28:39;99962.00;;;29.40
4421;BMP180;11824;51.178;13.546;2023-09-12T11:31:10;99961.00;;;29.40
4421;BMP180;11824;51.178;13.546;2023-09-12T11:33:41;99955.00;;;29.50
4421;BMP180;11824;51.178;13.546;2023-09-12T11:36:13;99949.00;;;29.50
4421;BMP180;11824;51.178;13.546;2023-09-12T11:38:42;99949.00;;;29.60
4421;BMP180;11824;51.178;13.546;2023-09-12T11:41:11;99950.00;;;29.60
4421;BMP180;11824;51.178;13.546;2023-09-12T11:43:41;99947.00;;;29.70
4421;BMP180;11824;51.178;13.546;2023-09-12T11:46:11;99941.00;;;29.70
4421;BMP180;11824;51.178;13.546;2023-09-12T11:48:39;99939.00;;;29.70
4421;BMP180;11824;51.178;13.546;2023-09-12T11:51:08;99941.00;;;29.70
4421;BMP180;11824;51.178;13.546;2023-09-12T11:53:37;99944.00;;;29.70
4421;BMP180;11824;51.178;13.546;2023-09-12T11:56:06;99943.00;;;29.70
4421;BMP180;11824;51.178;13.546;2023-09-12T11:58:35;99933.00;;;29.70
4421;BMP180;11824;51.178;13.546;2023-09-12T12:01:06;99940.00;;;29.70
4421;BMP180;11824;51.178;13.546;2023-09-12T12:03:40;99935.00;;;29.70
4421;BMP180;11824;51.178;13.546;2023-09-12T12:06:10;99932.00;;;29.70
4421;BMP180;11824;51.178;13.546;2023-09-12T12:08:38;99929.00;;;29.70
4421;BMP180;11824;51.178;13.546;2023-09-12T12:11:07;99929.00;;;29.70
4421;BMP180;11824;51.178;13.546;2023-09-12T12:13:36;99922.00;;;29.70
4421;BMP180;11824;51.178;13.546;2023-09-12T12:16:16;99927.00;;;29.70
4421;BMP180;11824;51.178;13.546;2023-09-12T12:18:45;99924.00;;;29.80
4421;BMP180;11824;51.178;13.546;2023-09-12T12:21:15;99922.00;;;29.80
4421;BMP180;11824;51.178;13.546;2023-09-12T12:23:43;99920.00;;;29.90
4421;BMP180;11824;51.178;13.546;2023-09-12T12:26:12;99915.00;;;29.90
4421;BMP180;11824;51.178;13.546;2023-09-12T12:28:41;99916.00;;;29.90
4421;BMP180;11824;51.178;13.546;2023-09-12T12:31:10;99922.00;;;30.00
4421;BMP180;11824;51.178;13.546;2023-09-12T12:33:42;99922.00;;;30.00
4421;BMP180;11824;51.178;13.546;2023-09-12T12:36:41;99923.00;;;30.00
4421;BMP180;11824;51.178;13.546;2023-09-12T12:39:24;99918.00;;;30.10
4421;BMP180;11824;51.178;13.546;2023-09-12T12:41:53;99916.00;;;30.10
4421;BMP180;11824;51.178;13.546;2023-09-12T12:44:22;99920.00;;;30.10
4421;BMP180;11824;51.178;13.546;2023-09-12T12:47:04;99920.00;;;30.10
4421;BMP180;11824;51.178;13.546;2023-09-12T12:49:38;99913.00;;;30.10
4421;BMP180;11824;51.178;13.546;2023-09-12T12:52:10;99910.00;;;30.10
4421;BMP180;11824;51.178;13.546;2023-09-12T12:54:41;99919.00;;;30.10
4421;BMP180;11824;51.178;13.546;2023-09-12T12:57:11;99908.00;;;30.10
4421;BMP180;11824;51.178;13.546;2023-09-12T12:59:45;99903.00;;;30.10
4421;BMP180;11824;51.178;13.546;2023-09-12T13:02:14;99911.00;;;30.20
4421;BMP180;11824;51.178;13.546;2023-09-12T13:04:44;99902.00;;;30.20
4421;BMP180;11824;51.178;13.546;2023-09-12T13:07:13;99899.00;;;30.20
4421;BMP180;11824;51.178;13.546;2023-09-12T13:09:42;99900.00;;;30.20
4421;BMP180;11824;51.178;13.546;2023-09-12T13:12:11;99897.00;;;30.20
4421;BMP180;11824;51.178;13.546;2023-09-12T13:14:40;99900.00;;;30.20
4421;BMP180;11824;51.178;13.546;2023-09-12T13:17:09;99904.00;;;30.20
4421;BMP180;11824;51.178;13.546;2023-09-12T13:19:37;99898.00;;;30.20
4421;BMP180;11824;51.178;13.546;2023-09-12T13:22:08;99898.00;;;30.20
4421;BMP180;11824;51.178;13.546;2023-09-12T13:24:36;99897.00;;;30.20
4421;BMP180;11824;51.178;13.546;2023-09-12T13:27:05;99896.00;;;30.20
4421;BMP180;11824;51.178;13.546;2023-09-12T13:29:34;99898.00;;;30.20
4421;BMP180;11824;51.178;13.546;2023-09-12T13:32:04;99897.00;;;30.30
4421;BMP180;11824;51.178;13.546;2023-09-12T13:34:32;99894.00;;;30.30
4421;BMP180;11824;51.178;13.546;2023-09-12T13:37:01;99891.00;;;30.40
4421;BMP180;11824;51.178;13.546;2023-09-12T13:39:40;99891.00;;;30.40
4421;BMP180;11824;51.178;13.546;2023-09-12T13:42:15;99889.00;;;30.40
4421;BMP180;11824;51.178;13.546;2023-09-12T13:44:48;99894.00;;;30.40
4421;BMP180;11824;51.178;13.546;2023-09-12T13:47:16;99897.00;;;30.40
4421;BMP180;11824;51.178;13.546;2023-09-12T13:49:50;99892.00;;;30.40
4421;BMP180;11824;51.178;13.546;2023-09-12T13:52:20;99885.00;;;30.40
4421;BMP180;11824;51.178;13.546;2023-09-12T13:54:51;99889.00;;;30.50
4421;BMP180;11824;51.178;13.546;2023-09-12T13:57:22;99884.00;;;30.50
4421;BMP180;11824;51.178;13.546;2023-09-12T13:59:50;99879.00;;;30.50
4421;BMP180;11824;51.178;13.546;2023-09-12T14:02:19;99881.00;;;30.50
4421;BMP180;11824;51.178;13.546;2023-09-12T14:04:50;99883.00;;;30.50
4421;BMP180;11824;51.178;13.546;2023-09-12T14:07:29;99877.00;;;30.50
4421;BMP180;11824;51.178;13.546;2023-09-12T14:10:00;99879.00;;;30.50
4421;BMP180;11824;51.178;13.546;2023-09-12T14:12:30;99874.00;;;30.50
4421;BMP180;11824;51.178;13.546;2023-09-12T14:14:59;99869.00;;;30.50
4421;BMP180;11824;51.178;13.546;2023-09-12T14:17:35;99869.00;;;30.50
4421;BMP180;11824;51.178;13.546;2023-09-12T14:20:12;99869.00;;;30.50
4421;BMP180;11824;51.178;13.546;2023-09-12T14:22:43;99877.00;;;30.50
4421;BMP180;11824;51.178;13.546;2023-09-12T14:25:13;99871.00;;;30.50
4421;BMP180;11824;51.178;13.546;2023-09-12T14:27:43;99870.00;;;30.60
4421;BMP180;11824;51.178;13.546;2023-09-12T14:30:13;99873.00;;;30.60